createdAt,value
2024-01-19T00:01:42.240Z,2.35
2024-01-19T00:04:09.192Z,2.20
2024-01-19T00:06:38.848Z,2.55
2024-01-19T00:09:06.466Z,2.63
2024-01-19T00:11:33.338Z,2.08
2024-01-19T00:14:00.156Z,2.45
2024-01-19T00:16:27.350Z,3.03
2024-01-19T00:18:54.246Z,2.33
2024-01-19T00:21:21.149Z,2.78
2024-01-19T00:23:48.512Z,3.30
2024-01-19T00:26:15.547Z,2.88
2024-01-19T00:28:43.073Z,2.67
2024-01-19T00:31:10.052Z,3.25
2024-01-19T00:33:36.957Z,2.70
2024-01-19T00:36:04.228Z,2.75
2024-01-19T00:38:31.386Z,3.42
2024-01-19T00:40:58.351Z,3.17
2024-01-19T00:43:25.204Z,4.13
2024-01-19T00:45:52.030Z,3.78
2024-01-19T00:48:19.058Z,4.72
2024-01-19T00:50:46.008Z,4.68
2024-01-19T00:53:12.885Z,4.53
2024-01-19T00:55:39.736Z,5.28
2024-01-19T00:58:06.725Z,5.88
2024-01-19T01:00:33.656Z,5.72
2024-01-19T01:03:00.671Z,6.70
2024-01-19T01:05:27.712Z,5.90
2024-01-19T01:07:54.839Z,7.05
2024-01-19T01:10:21.940Z,5.97
2024-01-19T01:12:48.860Z,6.22
2024-01-19T01:15:15.869Z,6.90
2024-01-19T01:17:42.924Z,6.13
2024-01-19T01:20:12.235Z,5.88
2024-01-19T01:22:39.237Z,7.03
2024-01-19T01:25:06.170Z,6.55
2024-01-19T01:27:33.046Z,5.90
2024-01-19T01:29:59.989Z,6.88
2024-01-19T01:32:26.975Z,6.28
2024-01-19T01:34:53.899Z,6.22
2024-01-19T01:37:20.783Z,4.95
2024-01-19T01:39:48.391Z,6.70
2024-01-19T01:42:15.683Z,6.32
2024-01-19T01:44:42.775Z,7.38
2024-01-19T01:47:09.634Z,5.45
2024-01-19T01:49:36.746Z,5.05
2024-01-19T01:52:04.135Z,6.50
2024-01-19T01:54:31.077Z,7.78
2024-01-19T01:56:58.088Z,6.13
2024-01-19T01:59:25.022Z,8.10
2024-01-19T02:01:52.132Z,7.60
2024-01-19T02:04:19.014Z,7.28
2024-01-19T02:06:46.092Z,7.20
2024-01-19T02:09:14.587Z,8.52
2024-01-19T02:11:41.570Z,7.72
2024-01-19T02:14:10.864Z,7.32
2024-01-19T02:16:38.100Z,8.07
2024-01-19T02:19:05.352Z,9.52
2024-01-19T02:21:32.342Z,7.55
2024-01-19T02:24:03.546Z,9.02
2024-01-19T02:26:32.210Z,9.40
2024-01-19T02:28:59.316Z,7.78
2024-01-19T02:31:26.162Z,7.38
2024-01-19T02:33:53.212Z,8.77
2024-01-19T02:36:20.153Z,8.70
2024-01-19T02:38:47.022Z,8.68
2024-01-19T02:41:13.955Z,8.00
2024-01-19T02:43:40.886Z,8.25
2024-01-19T02:46:08.292Z,8.50
2024-01-19T02:48:35.277Z,9.15
2024-01-19T02:51:02.165Z,8.20
2024-01-19T02:53:29.129Z,8.18
2024-01-19T02:55:57.802Z,8.95
2024-01-19T02:58:25.795Z,10.68
2024-01-19T03:00:52.790Z,9.57
2024-01-19T03:03:19.694Z,10.63
2024-01-19T03:05:46.550Z,9.10
2024-01-19T03:08:13.432Z,8.82
2024-01-19T03:10:40.309Z,10.63
2024-01-19T03:13:07.326Z,10.05
2024-01-19T03:15:34.316Z,9.90
2024-01-19T03:18:01.280Z,8.90
2024-01-19T03:20:28.266Z,9.95
2024-01-19T03:22:55.122Z,10.50
2024-01-19T03:25:21.933Z,11.65
2024-01-19T03:27:48.804Z,11.45
2024-01-19T03:30:16.727Z,10.73
2024-01-19T03:32:43.664Z,11.63
2024-01-19T03:35:10.613Z,12.40
2024-01-19T03:37:37.627Z,14.60
2024-01-19T03:40:07.863Z,13.40
2024-01-19T03:42:34.796Z,13.85
2024-01-19T03:45:01.856Z,14.88
2024-01-19T03:47:29.180Z,13.20
2024-01-19T03:49:56.174Z,13.32
2024-01-19T03:52:23.732Z,16.50
2024-01-19T03:54:50.664Z,16.23
2024-01-19T03:57:17.519Z,13.02
2024-01-19T03:59:44.509Z,15.98
2024-01-19T04:02:12.710Z,15.25
2024-01-19T04:04:39.784Z,14.75
2024-01-19T04:07:06.790Z,13.80
2024-01-19T04:09:33.688Z,14.32
2024-01-19T04:12:00.678Z,13.73
2024-01-19T04:14:27.660Z,12.88
2024-01-19T04:16:54.540Z,13.40
2024-01-19T04:19:21.501Z,12.20
2024-01-19T04:21:48.400Z,12.60
2024-01-19T04:24:15.206Z,15.70
2024-01-19T04:26:42.131Z,16.08
2024-01-19T04:29:11.063Z,16.13
2024-01-19T04:31:38.051Z,13.90
2024-01-19T04:34:04.936Z,15.98
2024-01-19T04:36:31.983Z,13.05
2024-01-19T04:38:58.884Z,15.52
2024-01-19T04:41:25.774Z,15.95
2024-01-19T04:43:52.721Z,13.40
2024-01-19T04:46:19.545Z,13.55
2024-01-19T04:48:46.870Z,13.45
2024-01-19T04:51:13.824Z,13.25
2024-01-19T04:53:40.760Z,15.07
2024-01-19T04:56:07.984Z,15.35
2024-01-19T04:58:36.041Z,13.77
2024-01-19T05:01:03.255Z,15.63
2024-01-19T05:03:30.848Z,15.75
2024-01-19T05:05:57.771Z,16.05
2024-01-19T05:08:25.099Z,14.73
2024-01-19T05:10:52.129Z,13.60
2024-01-19T05:13:18.965Z,13.73
2024-01-19T05:15:45.852Z,15.38
2024-01-19T05:18:12.877Z,16.35
2024-01-19T05:20:39.951Z,15.90
2024-01-19T05:23:08.177Z,15.35
2024-01-19T05:25:35.267Z,14.75
2024-01-19T05:28:02.226Z,13.02
2024-01-19T05:30:29.443Z,13.35
2024-01-19T05:32:56.983Z,15.85
2024-01-19T05:35:23.916Z,15.48
2024-01-19T05:37:50.876Z,15.88
2024-01-19T05:40:19.790Z,15.40
2024-01-19T05:42:47.027Z,14.80
2024-01-19T05:45:13.964Z,14.75
2024-01-19T05:47:42.238Z,13.23
2024-01-19T05:50:09.845Z,12.93
2024-01-19T05:52:36.724Z,14.80
2024-01-19T05:55:04.894Z,12.57
2024-01-19T05:57:31.992Z,13.80
2024-01-19T05:59:58.871Z,14.70
2024-01-19T06:02:25.971Z,15.25
2024-01-19T06:04:53.761Z,13.82
2024-01-19T06:07:20.729Z,14.25
2024-01-19T06:09:47.608Z,15.95
2024-01-19T06:12:15.451Z,14.80
2024-01-19T06:14:42.516Z,13.30
2024-01-19T06:17:12.956Z,13.20
2024-01-19T06:19:42.196Z,14.45
2024-01-19T06:22:09.215Z,15.10
2024-01-19T06:24:37.602Z,15.07
2024-01-19T06:27:05.161Z,16.73
2024-01-19T06:29:32.282Z,23.35
2024-01-19T06:31:59.316Z,32.13
2024-01-19T06:34:27.846Z,35.40
2024-01-19T06:36:54.832Z,32.88
2024-01-19T06:39:21.675Z,29.20
2024-01-19T06:41:48.677Z,21.48
2024-01-19T06:44:15.616Z,19.88
2024-01-19T06:46:46.609Z,15.30
2024-01-19T06:49:14.423Z,16.05
2024-01-19T06:51:41.559Z,16.65
2024-01-19T06:54:08.532Z,15.85
2024-01-19T06:56:35.642Z,18.73
2024-01-19T06:59:02.560Z,20.20
2024-01-19T07:01:30.031Z,20.17
2024-01-19T07:03:57.368Z,21.33
2024-01-19T07:06:24.310Z,21.17
2024-01-19T07:08:51.969Z,17.00
2024-01-19T07:11:21.401Z,15.05
2024-01-19T07:13:48.694Z,14.63
2024-01-19T07:16:16.131Z,17.90
2024-01-19T07:18:43.329Z,18.17
2024-01-19T07:21:10.701Z,16.20
2024-01-19T07:23:37.913Z,16.20
2024-01-19T07:26:05.105Z,18.35
2024-01-19T07:28:32.401Z,19.65
2024-01-19T07:30:59.321Z,21.60
2024-01-19T07:33:32.536Z,22.50
2024-01-19T07:36:01.516Z,24.50
2024-01-19T07:38:29.270Z,25.08
2024-01-19T07:40:56.625Z,21.80
2024-01-19T07:43:23.666Z,21.48
2024-01-19T07:45:50.947Z,19.67
2024-01-19T07:48:18.276Z,20.30
2024-01-19T07:50:45.240Z,19.92
2024-01-19T07:53:12.185Z,20.65
2024-01-19T07:55:39.215Z,17.23
2024-01-19T07:58:06.258Z,14.18
2024-01-19T08:00:33.629Z,13.45
2024-01-19T08:03:01.224Z,13.98
2024-01-19T08:05:28.404Z,13.45
2024-01-19T08:07:55.444Z,14.43
2024-01-19T08:10:22.465Z,14.32
2024-01-19T08:12:49.831Z,16.23
2024-01-19T08:15:16.792Z,17.10
2024-01-19T08:17:44.054Z,19.42
2024-01-19T08:20:12.115Z,21.00
2024-01-19T08:22:39.274Z,24.73
2024-01-19T08:25:06.251Z,30.20
2024-01-19T08:27:33.352Z,29.70
2024-01-19T08:30:00.569Z,31.92
2024-01-19T08:32:28.126Z,34.80
2024-01-19T08:34:55.314Z,39.17
2024-01-19T08:37:22.302Z,40.38
2024-01-19T08:39:49.346Z,33.00
2024-01-19T08:42:16.876Z,25.63
2024-01-19T08:44:47.099Z,21.77
2024-01-19T08:47:14.091Z,20.58
2024-01-19T08:49:42.961Z,17.42
2024-01-19T08:52:09.922Z,17.52
2024-01-19T08:54:36.814Z,20.27
2024-01-19T08:57:05.922Z,19.77
2024-01-19T08:59:35.855Z,16.52
2024-01-19T09:02:02.845Z,14.07
2024-01-19T09:04:30.466Z,13.27
2024-01-19T09:06:59.294Z,14.13
2024-01-19T09:09:26.866Z,14.57
2024-01-19T09:11:54.551Z,15.73
2024-01-19T09:14:21.674Z,16.77
2024-01-19T09:16:48.711Z,16.58
2024-01-19T09:19:16.231Z,16.33
2024-01-19T09:21:46.113Z,15.80
2024-01-19T09:24:13.401Z,14.50
2024-01-19T09:26:40.809Z,15.95
2024-01-19T09:29:09.895Z,15.30
2024-01-19T09:31:44.964Z,16.88
2024-01-19T09:34:11.945Z,16.50
2024-01-19T09:36:39.339Z,19.77
2024-01-19T09:39:07.301Z,21.33
2024-01-19T09:41:54.042Z,18.50
2024-01-19T09:44:21.353Z,17.92
2024-01-19T09:46:54.377Z,20.17
2024-01-19T09:49:42.519Z,28.80
2024-01-19T09:52:30.760Z,28.77
2024-01-19T09:54:57.679Z,30.77
2024-01-19T09:57:24.547Z,28.27
2024-01-19T09:59:51.505Z,25.08
2024-01-19T10:02:18.996Z,23.65
2024-01-19T10:04:46.027Z,20.35
2024-01-19T10:07:12.977Z,18.88
2024-01-19T10:09:41.420Z,17.55
2024-01-19T10:12:08.435Z,17.33
2024-01-19T10:14:35.406Z,16.38
2024-01-19T10:17:02.372Z,18.60
2024-01-19T10:19:29.434Z,20.90
2024-01-19T10:21:56.406Z,21.30
2024-01-19T10:24:23.304Z,19.35
2024-01-19T10:26:54.987Z,19.13
2024-01-19T10:29:22.481Z,22.40
2024-01-19T10:31:50.938Z,24.70
2024-01-19T10:34:21.946Z,25.40
2024-01-19T10:36:49.818Z,24.52
2024-01-19T10:39:17.262Z,21.73
2024-01-19T10:41:44.434Z,20.00
2024-01-19T10:44:12.517Z,18.08
2024-01-19T10:46:40.118Z,15.18
2024-01-19T10:49:09.851Z,14.35
2024-01-19T10:51:44.025Z,14.80
2024-01-19T10:54:25.764Z,14.43
2024-01-19T10:57:14.705Z,13.25
2024-01-19T10:59:42.924Z,12.30
2024-01-19T11:02:11.239Z,13.40
2024-01-19T11:04:41.611Z,10.27
2024-01-19T11:07:10.129Z,9.80
2024-01-19T11:09:38.996Z,8.77
2024-01-19T11:12:07.327Z,10.10
2024-01-19T11:14:35.596Z,8.73
2024-01-19T11:17:04.054Z,9.15
2024-01-19T11:19:32.357Z,9.98
2024-01-19T11:22:01.138Z,10.75
2024-01-19T11:24:30.491Z,11.13
2024-01-19T11:27:18.996Z,12.05
2024-01-19T11:29:47.187Z,9.95
2024-01-19T11:32:16.054Z,11.27
2024-01-19T11:34:49.744Z,9.55
2024-01-19T11:37:45.409Z,9.40
2024-01-19T11:40:25.615Z,10.52
2024-01-19T11:42:53.875Z,10.20
2024-01-19T11:45:44.355Z,9.90
2024-01-19T11:48:13.276Z,13.15
2024-01-19T11:50:46.180Z,11.55
2024-01-19T11:53:15.017Z,11.70
2024-01-19T11:55:47.583Z,10.70
2024-01-19T11:58:36.768Z,9.65
2024-01-19T12:01:05.370Z,9.57
2024-01-19T12:03:33.785Z,11.38
2024-01-19T12:06:03.040Z,12.98
2024-01-19T12:08:31.906Z,12.15
2024-01-19T12:11:10.190Z,11.48
2024-01-19T12:13:46.096Z,11.73
2024-01-19T12:16:24.480Z,11.50
2024-01-19T12:18:56.427Z,9.68
2024-01-19T12:21:25.455Z,10.52
2024-01-19T12:23:58.013Z,10.63
2024-01-19T12:26:26.555Z,9.60
2024-01-19T12:28:55.392Z,8.55
2024-01-19T12:31:29.659Z,10.63
2024-01-19T12:33:58.251Z,9.30
2024-01-19T12:36:30.098Z,10.68
2024-01-19T12:39:17.553Z,8.20
2024-01-19T12:41:47.433Z,9.82
2024-01-19T12:44:15.745Z,9.30
2024-01-19T12:46:50.228Z,8.75
2024-01-19T12:49:18.769Z,9.02
2024-01-19T12:51:47.096Z,8.82
2024-01-19T12:54:16.833Z,9.95
2024-01-19T12:56:46.152Z,8.80
2024-01-19T12:59:17.594Z,9.88
2024-01-19T13:01:48.596Z,8.65
2024-01-19T13:04:19.803Z,9.85
2024-01-19T13:06:48.139Z,10.18
2024-01-19T13:09:17.160Z,8.55
2024-01-19T13:11:45.453Z,8.27
2024-01-19T13:14:15.799Z,9.18
2024-01-19T13:16:54.904Z,8.77
2024-01-19T13:19:23.858Z,10.70
2024-01-19T13:21:53.583Z,11.98
2024-01-19T13:24:25.998Z,9.18
2024-01-19T13:27:03.812Z,12.27
2024-01-19T13:29:32.366Z,13.57
2024-01-19T13:32:01.025Z,9.00
2024-01-19T13:34:31.154Z,8.77
2024-01-19T13:37:00.229Z,9.65
2024-01-19T13:39:29.521Z,8.90
2024-01-19T13:41:58.577Z,9.85
2024-01-19T13:44:27.188Z,9.52
2024-01-19T13:46:55.683Z,9.05
2024-01-19T13:49:24.042Z,11.20
2024-01-19T13:51:53.696Z,8.65
2024-01-19T13:54:22.284Z,7.18
2024-01-19T13:56:51.046Z,5.80
2024-01-19T13:59:19.338Z,7.75
2024-01-19T14:01:48.821Z,8.50
2024-01-19T14:04:17.480Z,8.90
2024-01-19T14:06:44.858Z,7.65
2024-01-19T14:09:12.060Z,6.38
2024-01-19T14:11:39.098Z,6.10
2024-01-19T14:14:06.031Z,6.07
2024-01-19T14:16:33.076Z,7.70
2024-01-19T14:19:00.014Z,5.75
2024-01-19T14:21:26.997Z,7.97
2024-01-19T14:23:53.923Z,8.77
2024-01-19T14:26:21.617Z,6.03
2024-01-19T14:28:48.575Z,8.60
2024-01-19T14:31:15.556Z,8.85
2024-01-19T14:33:43.848Z,7.30
2024-01-19T14:36:11.018Z,8.55
2024-01-19T14:38:39.434Z,12.05
2024-01-19T14:41:06.584Z,12.52
2024-01-19T14:43:33.707Z,15.55
2024-01-19T14:46:00.622Z,15.43
2024-01-19T14:48:27.749Z,22.95
2024-01-19T14:50:54.985Z,18.45
2024-01-19T14:53:22.188Z,23.02
2024-01-19T14:55:49.287Z,24.08
2024-01-19T14:58:16.335Z,29.17
2024-01-19T15:00:43.294Z,24.40
2024-01-19T15:03:10.260Z,28.38
2024-01-19T15:05:37.210Z,22.33
2024-01-19T15:08:06.032Z,22.77
2024-01-19T15:10:33.601Z,21.98
2024-01-19T15:13:02.044Z,26.27
2024-01-19T15:15:29.153Z,26.95
2024-01-19T15:17:56.152Z,26.70
2024-01-19T15:20:23.287Z,29.02
2024-01-19T15:22:51.366Z,27.63
2024-01-19T15:25:20.005Z,28.95
2024-01-19T15:27:48.442Z,24.17
2024-01-19T15:30:23.629Z,20.48
2024-01-19T15:32:58.286Z,20.88
2024-01-19T15:35:28.208Z,17.38
2024-01-19T15:37:56.685Z,17.50
2024-01-19T15:40:24.607Z,15.23
2024-01-19T15:42:52.670Z,16.13
2024-01-19T15:45:21.985Z,16.95
2024-01-19T15:47:55.449Z,13.93
2024-01-19T15:50:24.141Z,10.95
2024-01-19T15:52:52.679Z,11.02
2024-01-19T15:55:20.076Z,10.75
2024-01-19T15:57:47.107Z,10.00
2024-01-19T16:00:14.601Z,10.43
2024-01-19T16:02:42.256Z,8.88
2024-01-19T16:05:09.408Z,8.25
2024-01-19T16:07:36.582Z,8.85
2024-01-19T16:10:03.675Z,8.55
2024-01-19T16:12:30.862Z,8.63
2024-01-19T16:14:59.724Z,10.07
2024-01-19T16:17:27.073Z,11.52
2024-01-19T16:19:54.244Z,10.25
2024-01-19T16:22:22.227Z,12.45
2024-01-19T16:24:49.382Z,13.40
2024-01-19T16:27:16.261Z,12.32
2024-01-19T16:29:44.676Z,12.18
2024-01-19T16:32:11.713Z,12.27
2024-01-19T16:34:38.661Z,12.00
2024-01-19T16:37:05.562Z,10.98
2024-01-19T16:39:32.529Z,10.57
2024-01-19T16:41:59.381Z,11.48
2024-01-19T16:44:26.332Z,10.60
2024-01-19T16:46:53.362Z,12.73
2024-01-19T16:49:20.340Z,11.65
2024-01-19T16:51:47.773Z,11.70
2024-01-19T16:54:14.743Z,11.73
2024-01-19T16:56:42.836Z,12.52
2024-01-19T16:59:10.191Z,12.55
2024-01-19T17:01:41.579Z,11.40
2024-01-19T17:06:35.336Z,12.25
2024-01-19T17:09:02.459Z,13.35
2024-01-19T17:11:29.878Z,12.68
2024-01-19T17:13:58.090Z,12.27
2024-01-19T17:16:25.747Z,12.48
2024-01-19T17:18:53.408Z,12.43
2024-01-19T17:21:20.758Z,10.30
2024-01-19T17:23:48.035Z,9.98
2024-01-19T17:26:15.389Z,10.82
2024-01-19T17:28:44.813Z,10.40
2024-01-19T17:31:20.247Z,12.73
2024-01-19T17:33:57.922Z,12.98
2024-01-19T17:36:35.859Z,14.90
2024-01-19T17:39:03.458Z,11.32
2024-01-19T17:41:30.964Z,11.48
2024-01-19T17:43:58.229Z,9.85
2024-01-19T17:46:25.287Z,10.55
2024-01-19T17:48:52.538Z,9.70
2024-01-19T17:51:22.190Z,11.25
2024-01-19T17:53:50.834Z,15.65
2024-01-19T17:56:18.064Z,12.93
2024-01-19T17:58:45.124Z,11.07
2024-01-19T18:01:12.071Z,12.23
2024-01-19T18:03:40.174Z,8.93
2024-01-19T18:06:08.701Z,11.48
2024-01-19T18:08:35.934Z,10.43
2024-01-19T18:11:03.781Z,13.18
2024-01-19T18:13:31.542Z,13.30
2024-01-19T18:15:58.927Z,10.18
2024-01-19T18:18:31.708Z,10.82
2024-01-19T18:21:03.827Z,11.93
2024-01-19T18:23:31.385Z,10.85
2024-01-19T18:25:58.909Z,10.65
2024-01-19T18:28:27.446Z,12.27
2024-01-19T18:30:55.276Z,11.38
2024-01-19T18:33:22.719Z,9.23
2024-01-19T18:35:50.327Z,9.13
2024-01-19T18:38:18.116Z,9.50
2024-01-19T18:40:45.138Z,8.98
2024-01-19T18:43:12.081Z,7.70
2024-01-19T18:45:38.954Z,9.63
2024-01-19T18:48:06.291Z,9.52
2024-01-19T18:50:33.787Z,9.18
2024-01-19T18:53:01.437Z,8.77
2024-01-19T18:55:28.727Z,9.43
2024-01-19T18:57:56.466Z,8.30
2024-01-19T19:00:23.954Z,8.70
2024-01-19T19:02:57.553Z,9.65
2024-01-19T19:05:24.571Z,9.43
2024-01-19T19:07:51.664Z,8.55
2024-01-19T19:10:18.745Z,9.27
2024-01-19T19:12:45.717Z,9.30
2024-01-19T19:15:12.894Z,7.40
2024-01-19T19:17:40.426Z,8.63
2024-01-19T19:20:08.715Z,8.50
2024-01-19T19:22:35.786Z,7.93
2024-01-19T19:25:02.770Z,9.13
2024-01-19T19:27:29.756Z,7.97
2024-01-19T19:29:56.677Z,7.00
2024-01-19T19:32:23.695Z,6.82
2024-01-19T19:34:50.687Z,7.03
2024-01-19T19:37:18.029Z,7.07
2024-01-19T19:39:44.915Z,6.72
2024-01-19T19:42:11.877Z,6.55
2024-01-19T19:44:38.885Z,6.47
2024-01-19T19:47:06.975Z,7.65
2024-01-19T19:49:33.992Z,7.40
2024-01-19T19:52:01.189Z,7.28
2024-01-19T19:54:29.570Z,6.68
2024-01-19T19:56:56.830Z,8.20
2024-01-19T19:59:24.106Z,7.85
2024-01-19T20:01:51.617Z,7.43
2024-01-19T20:04:18.806Z,7.70
2024-01-19T20:06:46.481Z,7.47
2024-01-19T20:09:13.567Z,7.43
2024-01-19T20:11:40.816Z,6.90
2024-01-19T20:14:08.455Z,6.50
2024-01-19T20:16:36.839Z,6.80
2024-01-19T20:19:05.655Z,6.82
2024-01-19T20:21:32.709Z,6.78
2024-01-19T20:23:59.958Z,6.35
2024-01-19T20:26:27.492Z,6.50
2024-01-19T20:28:55.013Z,6.63
2024-01-19T20:31:22.313Z,6.90
2024-01-19T20:33:49.592Z,6.82
2024-01-19T20:36:16.498Z,7.20
2024-01-19T20:38:43.635Z,7.32
2024-01-19T20:41:13.087Z,8.20
2024-01-19T20:43:40.315Z,7.03
2024-01-19T20:46:07.287Z,7.50
2024-01-19T20:48:34.305Z,7.00
2024-01-19T20:51:01.292Z,6.82
2024-01-19T20:53:28.883Z,7.47
2024-01-19T20:55:56.166Z,7.45
2024-01-19T20:58:24.804Z,7.00
2024-01-19T21:00:51.899Z,7.43
2024-01-19T21:03:19.178Z,7.45
2024-01-19T21:05:46.541Z,7.65
2024-01-19T21:08:15.456Z,9.32
2024-01-19T21:10:42.751Z,9.32
2024-01-19T21:13:10.082Z,8.27
2024-01-19T21:15:37.517Z,8.05
2024-01-19T21:18:05.024Z,8.45
2024-01-19T21:20:32.205Z,7.32
2024-01-19T21:23:00.511Z,7.68
2024-01-19T21:25:27.558Z,8.05
2024-01-19T21:27:55.210Z,7.82
2024-01-19T21:30:22.493Z,8.32
2024-01-19T21:32:49.588Z,7.15
2024-01-19T21:35:16.966Z,6.85
2024-01-19T21:37:44.819Z,6.63
2024-01-19T21:40:12.417Z,6.50
2024-01-19T21:42:44.971Z,6.95
2024-01-19T21:45:15.508Z,6.97
2024-01-19T21:47:43.181Z,6.65
2024-01-19T21:50:11.191Z,9.60
2024-01-19T21:52:38.381Z,9.48
2024-01-19T21:55:07.653Z,8.90
2024-01-19T21:57:34.732Z,7.40
2024-01-19T22:00:01.760Z,6.88
2024-01-19T22:02:29.000Z,7.82
2024-01-19T22:04:56.203Z,7.95
2024-01-19T22:07:23.260Z,7.93
2024-01-19T22:09:50.586Z,7.43
2024-01-19T22:12:17.403Z,6.88
2024-01-19T22:14:44.257Z,6.80
2024-01-19T22:17:11.229Z,8.07
2024-01-19T22:19:38.114Z,7.75
2024-01-19T22:22:05.182Z,6.32
2024-01-19T22:24:32.121Z,5.63
2024-01-19T22:26:59.073Z,6.25
2024-01-19T22:29:28.308Z,5.95
2024-01-19T22:31:56.182Z,4.97
2024-01-19T22:34:24.611Z,5.90
2024-01-19T22:36:51.905Z,5.70
2024-01-19T22:39:18.892Z,5.70
2024-01-19T22:41:46.120Z,6.05
2024-01-19T22:44:15.096Z,5.80
2024-01-19T22:46:42.480Z,5.20
2024-01-19T22:49:11.875Z,5.05
2024-01-19T22:51:39.168Z,5.88
2024-01-19T22:54:06.478Z,5.47
2024-01-19T22:56:33.966Z,5.70
2024-01-19T22:59:01.329Z,6.10
2024-01-19T23:01:28.381Z,5.97
2024-01-19T23:03:55.318Z,5.65
2024-01-19T23:06:23.176Z,6.60
2024-01-19T23:08:50.164Z,6.72
2024-01-19T23:11:17.065Z,5.60
2024-01-19T23:13:44.520Z,5.68
2024-01-19T23:16:11.525Z,5.63
2024-01-19T23:18:38.521Z,6.63
2024-01-19T23:21:06.037Z,5.72
2024-01-19T23:23:33.670Z,4.85
2024-01-19T23:26:00.932Z,4.93
2024-01-19T23:28:28.152Z,4.15
2024-01-19T23:30:55.126Z,4.78
2024-01-19T23:33:22.921Z,3.90
2024-01-19T23:35:50.125Z,4.65
2024-01-19T23:38:17.154Z,4.38
2024-01-19T23:40:44.358Z,4.95
2024-01-19T23:43:11.673Z,4.82
2024-01-19T23:45:38.799Z,4.32
2024-01-19T23:48:07.494Z,4.20
2024-01-19T23:50:35.666Z,4.10
2024-01-19T23:53:03.075Z,4.13
2024-01-19T23:55:30.192Z,4.20
2024-01-19T23:57:57.024Z,3.65
